In Rescue
 
Open Full Screen Window  High Contrast Mode
Wind Gusting 00 knots
10
October 25, 2021 5:16 PM EDT
Weather Information
Wind Direction
  020 °
Wind Speed
  10 kt (12 mph)
Wind Gust
  00 kt (0 mph)
Variable Wind
340°
050°
Altimeter
29.90 in
Visibility
10 SM
Temperature
09° C
48° F
Dewpoint
08° C
46° F
Humidity
94%
1hr Rain Fall
00.00 in.
24hr Rain Fall
00.35 in.
Sky Condition
Overcast @ 3,900 ft
Scattered @ 2,900 ft
Scattered @ 1,500 ft
VFR

METAR KIKW 252116Z AUTO 02010KT 340V050 10SM SCT015 SCT029 OVC039 09/08 A2990 RMK AO2 T00920077

FAA Disclaimer: The data displayed is for advisory purposes only and is not to be used for flight planning or operations.